Time;durP1;ratioP1;P1;durP2;ratioP2;P2;SDS_P1;SDS_P2;PMS_P1;PMS_P2;Temp;Humidity;BMP_temperature;BMP_pressure;BME280_temperature;BME280_humidity;BME280_pressure;Samples;Min_cycle;Max_cycle;Signal;HPM_P1;HPM_P2
2022/01/06 00:00:53;;;;;;;10.70;2.58;;;23.60;60.30;;;;;;4962057;28;20023;-75
2022/01/06 00:03:20;;;;;;;15.52;4.15;;;23.60;60.20;;;;;;4968056;28;20086;-74
2022/01/06 00:05:46;;;;;;;20.08;3.90;;;23.60;60.30;;;;;;4968520;28;20030;-74
2022/01/06 00:08:13;;;;;;;18.58;3.83;;;23.60;60.40;;;;;;4969601;28;20122;-74
2022/01/06 00:10:39;;;;;;;9.15;2.58;;;23.60;60.50;;;;;;4963898;28;20031;-70
2022/01/06 00:13:11;;;;;;;24.70;3.58;;;23.60;60.50;;;;;;4970514;28;20030;-72
2022/01/06 00:15:54;;;;;;;12.13;2.97;;;23.70;60.50;;;;;;4969310;28;20045;-74
2022/01/06 00:23:42;;;;;;;11.87;2.67;;;23.60;60.50;;;;;;4963297;28;20169;-72
2022/01/06 00:26:09;;;;;;;9.65;2.50;;;23.60;60.60;;;;;;4964146;28;20370;-72
2022/01/06 00:28:37;;;;;;;9.95;2.42;;;23.60;60.60;;;;;;4966617;28;20034;-69
2022/01/06 00:31:03;;;;;;;7.20;2.83;;;23.60;60.60;;;;;;4970767;28;20492;-76
2022/01/06 00:33:32;;;;;;;8.55;2.35;;;23.60;60.70;;;;;;4964826;28;20141;-76
2022/01/06 00:35:59;;;;;;;10.43;2.17;;;23.60;60.70;;;;;;4969042;28;20552;-70
2022/01/06 00:38:26;;;;;;;10.82;2.70;;;23.60;60.70;;;;;;4966681;28;20468;-71
2022/01/06 00:40:53;;;;;;;9.25;2.10;;;23.60;60.80;;;;;;4968508;28;20086;-70
2022/01/06 00:43:20;;;;;;;9.73;2.47;;;23.60;60.80;;;;;;4967766;28;20098;-74
2022/01/06 00:45:47;;;;;;;8.00;2.30;;;23.60;60.90;;;;;;4970221;28;20096;-75
2022/01/06 00:48:14;;;;;;;10.10;2.20;;;23.60;61.00;;;;;;4970325;28;20043;-76
2022/01/06 00:50:43;;;;;;;5.95;2.50;;;23.60;61.00;;;;;;4966893;28;20085;-76
2022/01/06 00:53:10;;;;;;;8.15;2.63;;;23.50;61.00;;;;;;4966899;28;20027;-76
2022/01/06 00:55:38;;;;;;;9.13;2.80;;;23.60;61.10;;;;;;4966383;28;20418;-75
2022/01/06 00:58:05;;;;;;;8.45;2.72;;;23.60;61.20;;;;;;4971160;28;20019;-77
2022/01/06 01:00:39;;;;;;;6.18;2.00;;;23.50;61.10;;;;;;4971469;28;20027;-78
2022/01/06 01:03:27;;;;;;;7.55;2.50;;;23.60;61.20;;;;;;4972506;28;20019;-76
2022/01/06 01:05:55;;;;;;;13.20;2.97;;;23.50;61.20;;;;;;4972902;28;20027;-76
2022/01/06 01:08:24;;;;;;;28.52;4.55;;;23.50;61.30;;;;;;4970397;28;20038;-76
2022/01/06 01:10:52;;;;;;;25.10;3.80;;;23.50;61.70;;;;;;4973450;28;20022;-78
2022/01/06 01:13:27;;;;;;;12.75;2.80;;;23.50;61.80;;;;;;4971776;28;20019;-76
2022/01/06 01:15:57;;;;;;;11.90;3.30;;;23.50;61.80;;;;;;4969475;28;20494;-75
2022/01/06 01:18:24;;;;;;;7.90;3.17;;;23.50;61.70;;;;;;4969752;28;20042;-77
2022/01/06 01:20:52;;;;;;;13.20;3.45;;;23.50;61.80;;;;;;4971190;28;20062;-76
2022/01/06 01:23:21;;;;;;;10.88;2.50;;;23.50;61.70;;;;;;4973865;28;20050;-76
2022/01/06 01:25:48;;;;;;;13.27;2.67;;;23.50;61.70;;;;;;4970911;28;20031;-76
2022/01/06 01:28:15;;;;;;;11.25;3.35;;;23.40;61.70;;;;;;4968652;28;20054;-77
2022/01/06 01:31:01;;;;;;;10.13;3.97;;;23.40;61.80;;;;;;4974078;28;20390;-74
2022/01/06 01:33:29;;;;;;;7.93;3.30;;;23.40;62.00;;;;;;4971421;28;20113;-77
2022/01/06 01:35:56;;;;;;;11.27;4.10;;;23.40;62.20;;;;;;4971888;28;20027;-75
2022/01/06 01:38:22;;;;;;;10.57;3.92;;;23.40;62.10;;;;;;4970954;28;20494;-75
2022/01/06 01:40:49;;;;;;;8.43;3.00;;;23.40;62.00;;;;;;4972819;28;20030;-77
2022/01/06 01:43:15;;;;;;;9.82;3.47;;;23.30;61.90;;;;;;4967658;28;20022;-74
2022/01/06 01:45:46;;;;;;;7.22;2.67;;;23.30;61.90;;;;;;4970105;28;20386;-74
2022/01/06 01:48:21;;;;;;;7.45;3.08;;;23.30;61.90;;;;;;4972159;28;20023;-75
2022/01/06 01:50:47;;;;;;;;;;;23.30;61.80;;;;;;4967155;28;20027;-75
2022/01/06 01:53:14;;;;;;;6.68;2.50;;;23.30;61.80;;;;;;4973096;28;20388;-76
2022/01/06 01:55:40;;;;;;;10.60;3.13;;;23.30;61.80;;;;;;4970189;28;20432;-75
2022/01/06 01:58:08;;;;;;;10.25;2.53;;;23.30;61.80;;;;;;4970605;28;20030;-75
2022/01/06 02:00:35;;;;;;;9.55;2.55;;;23.30;61.90;;;;;;4964973;28;20501;-74
2022/01/06 02:03:01;;;;;;;9.85;2.60;;;23.30;61.90;;;;;;4972264;28;20600;-74
2022/01/06 02:05:29;;;;;;;11.77;2.10;;;23.30;62.00;;;;;;4972846;28;20027;-74
2022/01/06 02:08:00;;;;;;;15.05;2.90;;;23.30;62.00;;;;;;4969056;28;20031;-76
2022/01/06 02:10:29;;;;;;;35.85;4.93;;;23.30;62.20;;;;;;4967241;28;20391;-75
2022/01/06 02:12:57;;;;;;;16.45;3.28;;;23.30;62.20;;;;;;4968500;28;20018;-77
2022/01/06 02:15:24;;;;;;;18.27;2.63;;;23.20;62.20;;;;;;4952623;28;20027;-76
2022/01/06 02:17:51;;;;;;;11.65;3.67;;;23.20;62.20;;;;;;4953594;28;20390;-77
2022/01/06 02:20:20;;;;;;;11.07;2.58;;;23.20;62.00;;;;;;4967075;28;20053;-77
2022/01/06 02:22:47;;;;;;;6.93;2.20;;;23.20;62.10;;;;;;4970448;28;20039;-77
2022/01/06 02:25:19;;;;;;;7.28;1.70;;;23.10;62.00;;;;;;4969200;28;20505;-76
2022/01/06 02:27:50;;;;;;;8.32;2.33;;;23.10;62.10;;;;;;4969684;28;20433;-76
2022/01/06 02:30:18;;;;;;;5.82;2.20;;;23.10;62.10;;;;;;4968016;28;20386;-75
2022/01/06 02:32:46;;;;;;;9.63;2.40;;;23.10;62.10;;;;;;4972124;28;20063;-77
2022/01/06 02:35:18;;;;;;;6.80;2.38;;;23.10;62.20;;;;;;4971414;28;20015;-77
2022/01/06 02:37:46;;;;;;;8.25;2.30;;;23.00;62.20;;;;;;4966552;28;20019;-77
2022/01/06 02:40:15;;;;;;;6.75;2.53;;;23.00;62.30;;;;;;4971102;28;20018;-76
2022/01/06 02:42:44;;;;;;;7.90;3.65;;;23.00;62.40;;;;;;4967732;28;20390;-75
2022/01/06 02:45:12;;;;;;;14.40;3.65;;;23.00;62.40;;;;;;4965898;28;20115;-78
2022/01/06 02:47:40;;;;;;;24.48;5.55;;;23.00;62.50;;;;;;4953455;28;20581;-76
2022/01/06 02:50:08;;;;;;;13.63;2.80;;;22.90;62.70;;;;;;4953166;28;20497;-75
2022/01/06 02:52:34;;;;;;;11.30;2.90;;;23.00;62.70;;;;;;4967649;28;20090;-78
2022/01/06 02:55:02;;;;;;;13.55;2.83;;;22.90;62.50;;;;;;4967174;28;20046;-75
2022/01/06 02:57:29;;;;;;;9.65;2.25;;;22.90;62.50;;;;;;4971915;28;20021;-77
2022/01/06 02:59:55;;;;;;;14.82;2.22;;;22.90;62.50;;;;;;4968634;28;20031;-78
2022/01/06 03:02:22;;;;;;;22.02;4.50;;;22.90;62.50;;;;;;4971767;28;20015;-77
2022/01/06 03:04:48;;;;;;;19.70;3.40;;;22.90;62.70;;;;;;4964859;28;20023;-72
2022/01/06 03:07:15;;;;;;;51.10;5.57;;;22.90;62.80;;;;;;4968718;28;20031;-77
2022/01/06 03:09:43;;;;;;;50.63;6.18;;;22.90;62.80;;;;;;4964349;28;20545;-76
2022/01/06 03:12:20;;;;;;;22.33;4.25;;;22.90;63.10;;;;;;4969255;28;20029;-74
2022/01/06 03:14:47;;;;;;;11.10;3.08;;;22.80;63.00;;;;;;4969549;28;20039;-74
2022/01/06 03:17:13;;;;;;;8.30;2.40;;;22.80;63.00;;;;;;4966211;28;20055;-72
2022/01/06 03:19:40;;;;;;;30.55;5.03;;;22.80;62.90;;;;;;4963286;28;20023;-78
2022/01/06 03:22:07;;;;;;;150.95;19.08;;;22.80;63.60;;;;;;4967969;28;20050;-74
2022/01/06 03:24:34;;;;;;;118.72;13.02;;;22.80;63.40;;;;;;4965779;28;20513;-79
2022/01/06 03:27:00;;;;;;;114.82;14.73;;;22.80;63.50;;;;;;4963960;28;20030;-79
2022/01/06 03:29:28;;;;;;;88.57;11.75;;;22.80;63.60;;;;;;4959453;28;20446;-77
2022/01/06 03:31:55;;;;;;;33.65;5.35;;;22.80;63.60;;;;;;4964262;28;20035;-77
2022/01/06 03:34:21;;;;;;;31.88;4.88;;;22.80;63.40;;;;;;4968157;28;20022;-76
2022/01/06 03:36:48;;;;;;;74.55;7.68;;;22.80;63.20;;;;;;4967615;28;20023;-74
2022/01/06 03:39:14;;;;;;;76.00;8.93;;;22.70;63.30;;;;;;4969497;28;20431;-71
2022/01/06 03:41:41;;;;;;;44.00;7.90;;;22.70;63.40;;;;;;4966692;28;20023;-77
2022/01/06 03:44:08;;;;;;;56.10;7.10;;;22.70;63.40;;;;;;4961100;28;20131;-73
2022/01/06 03:46:35;;;;;;;48.95;6.88;;;22.70;63.50;;;;;;4967463;28;20496;-78
2022/01/06 03:49:01;;;;;;;56.78;5.78;;;22.70;63.70;;;;;;4970503;28;20042;-75
2022/01/06 03:51:27;;;;;;;58.70;9.55;;;22.70;63.70;;;;;;4965431;28;20061;-73
2022/01/06 03:53:55;;;;;;;51.08;6.40;;;22.60;63.70;;;;;;4964821;28;20031;-76
2022/01/06 03:56:22;;;;;;;71.43;11.82;;;22.60;63.70;;;;;;4969142;28;20031;-75
2022/01/06 03:58:50;;;;;;;45.15;9.20;;;22.60;63.80;;;;;;4969240;28;20027;-75
2022/01/06 04:01:16;;;;;;;53.00;19.48;;;22.60;64.10;;;;;;4952333;28;20029;-76
2022/01/06 04:03:45;;;;;;;75.88;49.90;;;22.50;64.50;;;;;;4971481;28;20274;-75
2022/01/06 04:06:11;;;;;;;77.63;46.03;;;22.50;64.50;;;;;;4969877;28;20084;-76
2022/01/06 04:08:38;;;;;;;78.65;25.15;;;22.50;64.40;;;;;;4963764;28;20046;-75
2022/01/06 04:11:04;;;;;;;56.92;14.48;;;22.50;64.40;;;;;;4967018;28;20027;-76
2022/01/06 04:13:32;;;;;;;44.25;9.05;;;22.50;64.30;;;;;;4966591;28;20024;-79
2022/01/06 04:16:01;;;;;;;23.30;7.40;;;22.50;64.20;;;;;;4971901;28;20031;-82
2022/01/06 04:18:28;;;;;;;17.95;5.25;;;22.50;64.10;;;;;;4966051;28;20011;-76
2022/01/06 04:20:55;;;;;;;55.22;8.65;;;22.40;63.90;;;;;;4968930;28;20813;-72
2022/01/06 04:23:21;;;;;;;56.17;6.22;;;22.50;64.40;;;;;;4963591;28;20046;-72
2022/01/06 04:25:49;;;;;;;43.63;12.32;;;22.50;64.60;;;;;;4970837;28;20458;-78
2022/01/06 04:28:15;;;;;;;76.53;28.13;;;22.50;64.60;;;;;;4964828;28;20122;-75
2022/01/06 04:30:42;;;;;;;57.60;29.75;;;22.50;64.50;;;;;;4953102;28;20031;-77
2022/01/06 04:33:08;;;;;;;43.17;20.10;;;22.50;64.60;;;;;;4974363;28;20027;-76
2022/01/06 04:35:35;;;;;;;24.23;12.50;;;22.50;64.60;;;;;;4973597;28;20027;-73
2022/01/06 04:38:01;;;;;;;39.30;11.30;;;22.50;64.60;;;;;;4974551;28;20065;-75
2022/01/06 04:40:28;;;;;;;37.85;11.40;;;22.50;64.50;;;;;;4973698;28;20023;-76
2022/01/06 04:42:54;;;;;;;43.75;17.80;;;22.50;64.70;;;;;;4970063;28;20027;-76
2022/01/06 04:45:21;;;;;;;25.45;13.40;;;22.50;64.90;;;;;;4974421;28;20394;-80
2022/01/06 04:47:47;;;;;;;18.38;8.68;;;22.50;65.10;;;;;;4973394;28;20050;-80
2022/01/06 04:50:14;;;;;;;19.63;12.32;;;22.50;65.40;;;;;;4971836;28;20106;-78
2022/01/06 04:52:40;;;;;;;26.90;18.77;;;22.50;65.30;;;;;;4971149;28;20023;-75
2022/01/06 04:55:08;;;;;;;30.52;18.92;;;22.50;65.40;;;;;;4971839;28;20096;-73
2022/01/06 04:57:34;;;;;;;20.00;13.88;;;22.50;65.30;;;;;;4967368;28;20021;-77
2022/01/06 05:00:01;;;;;;;26.35;10.13;;;22.50;65.30;;;;;;4969261;28;20022;-77
2022/01/06 05:02:27;;;;;;;24.17;7.72;;;22.50;65.50;;;;;;4971452;28;20031;-76
2022/01/06 05:04:53;;;;;;;15.18;6.38;;;22.50;65.40;;;;;;4967301;28;20066;-76
2022/01/06 05:07:21;;;;;;;15.38;5.25;;;22.50;65.20;;;;;;4969695;28;20035;-74
2022/01/06 05:09:48;;;;;;;13.73;4.97;;;22.50;65.10;;;;;;4971078;28;20038;-76
2022/01/06 05:12:14;;;;;;;12.15;3.42;;;22.50;64.90;;;;;;4970078;28;20134;-75
2022/01/06 05:14:42;;;;;;;9.68;3.85;;;22.50;64.70;;;;;;4968310;28;20038;-80
2022/01/06 05:17:09;;;;;;;9.90;3.75;;;22.50;64.60;;;;;;4953858;28;20090;-76
2022/01/06 05:19:36;;;;;;;9.93;4.65;;;22.60;64.80;;;;;;4953667;28;20046;-76
2022/01/06 05:22:03;;;;;;;39.40;5.80;;;22.60;64.80;;;;;;4971634;28;20067;-77
2022/01/06 05:24:30;;;;;;;98.85;10.18;;;22.60;64.90;;;;;;4971103;28;20046;-78
2022/01/06 05:26:57;;;;;;;83.40;10.43;;;22.60;65.30;;;;;;4968647;28;20410;-75
2022/01/06 05:29:24;;;;;;;84.18;11.93;;;22.60;65.50;;;;;;4970966;28;20047;-78
2022/01/06 05:31:54;;;;;;;62.90;10.93;;;22.60;65.40;;;;;;4968575;28;20042;-76
2022/01/06 05:34:21;;;;;;;76.72;8.32;;;22.70;65.50;;;;;;4972123;28;20113;-75
2022/01/06 05:36:47;;;;;;;108.88;12.82;;;22.70;65.90;;;;;;4972459;28;20029;-78
2022/01/06 05:39:14;;;;;;;122.35;18.40;;;22.70;66.20;;;;;;4969732;28;20053;-75
2022/01/06 05:41:41;;;;;;;127.68;36.53;;;22.80;66.40;;;;;;4963343;28;20030;-75
2022/01/06 05:44:08;;;;;;;128.93;32.90;;;22.80;66.50;;;;;;4969683;28;20479;-75
2022/01/06 05:46:34;;;;;;;95.63;24.10;;;22.80;66.40;;;;;;4975600;28;20022;-76
2022/01/06 05:49:01;;;;;;;94.85;17.13;;;22.90;66.50;;;;;;4972023;28;20051;-76
2022/01/06 05:51:27;;;;;;;95.70;17.67;;;22.90;66.60;;;;;;4969915;28;20070;-76
2022/01/06 05:53:54;;;;;;;50.65;10.85;;;22.90;66.40;;;;;;4968648;28;20027;-73
2022/01/06 05:56:21;;;;;;;49.75;10.23;;;23.00;66.20;;;;;;4966785;28;20026;-75
2022/01/06 05:58:48;;;;;;;33.10;6.88;;;23.00;66.00;;;;;;4969030;28;20027;-77
2022/01/06 06:01:15;;;;;;;22.92;5.55;;;23.10;65.80;;;;;;4974485;28;20030;-77
2022/01/06 06:03:41;;;;;;;23.38;5.35;;;23.10;65.80;;;;;;4968160;28;20031;-72
2022/01/06 06:06:08;;;;;;;42.83;7.55;;;23.10;65.80;;;;;;4955096;28;20054;-76
2022/01/06 06:08:34;;;;;;;53.50;6.97;;;23.20;65.90;;;;;;4962654;28;20414;-73
2022/01/06 06:11:01;;;;;;;32.50;5.82;;;23.20;65.60;;;;;;4971926;28;20351;-77
2022/01/06 06:13:29;;;;;;;25.98;4.75;;;23.30;65.40;;;;;;4971199;28;20110;-75
2022/01/06 06:15:55;;;;;;;18.80;4.38;;;23.40;65.10;;;;;;4972515;28;20505;-77
2022/01/06 06:18:22;;;;;;;17.35;3.40;;;23.40;64.90;;;;;;4964911;28;20081;-77
2022/01/06 06:20:48;;;;;;;18.67;3.08;;;23.40;64.60;;;;;;4972498;28;20027;-76
2022/01/06 06:23:15;;;;;;;11.57;3.20;;;23.50;64.50;;;;;;4968998;28;20512;-81
2022/01/06 06:25:41;;;;;;;47.60;9.50;;;23.50;64.50;;;;;;4970541;28;20027;-77
2022/01/06 06:28:09;;;;;;;27.98;7.72;;;23.50;64.40;;;;;;4966568;28;20038;-78
2022/01/06 06:30:35;;;;;;;68.82;11.68;;;23.50;64.30;;;;;;4972425;28;20023;-76
2022/01/06 06:33:02;;;;;;;89.55;14.13;;;23.50;64.10;;;;;;4970256;28;20878;-77
2022/01/06 06:35:31;;;;;;;68.28;10.95;;;23.50;64.60;;;;;;4967719;28;20019;-79
2022/01/06 06:38:00;;;;;;;64.20;9.77;;;23.60;64.50;;;;;;4970414;28;20042;-77
2022/01/06 06:40:27;;;;;;;88.82;11.02;;;23.60;64.50;;;;;;4968980;28;20062;-76
2022/01/06 06:42:54;;;;;;;75.53;12.48;;;23.70;64.90;;;;;;4971260;28;20034;-79
2022/01/06 06:45:22;;;;;;;68.47;11.68;;;23.70;64.80;;;;;;4952940;28;20050;-74
2022/01/06 06:47:48;;;;;;;91.18;12.55;;;23.80;64.60;;;;;;4970564;28;20023;-76
2022/01/06 06:50:16;;;;;;;91.13;11.38;;;23.80;64.30;;;;;;4971627;28;20022;-75
2022/01/06 06:52:44;;;;;;;51.25;8.98;;;23.80;64.10;;;;;;4936913;28;20085;-75
2022/01/06 06:55:15;;;;;;;55.65;9.00;;;23.90;64.00;;;;;;4965929;28;20023;-75
2022/01/06 06:57:41;;;;;;;58.40;9.18;;;23.90;63.90;;;;;;4951658;28;20119;-78
2022/01/06 07:00:10;;;;;;;47.35;7.50;;;24.00;63.80;;;;;;4955974;28;20023;-81
2022/01/06 07:02:37;;;;;;;42.45;7.65;;;24.00;63.70;;;;;;4965334;28;20033;-79
2022/01/06 07:05:04;;;;;;;41.70;7.75;;;24.00;63.80;;;;;;4969677;28;20062;-76
2022/01/06 07:07:30;;;;;;;58.15;6.40;;;24.10;63.90;;;;;;4967120;28;20073;-79
2022/01/06 07:09:57;;;;;;;37.55;5.45;;;24.10;63.70;;;;;;4968308;28;20094;-76
2022/01/06 07:12:24;;;;;;;30.92;4.75;;;24.10;63.50;;;;;;4971689;28;20019;-78
2022/01/06 07:14:51;;;;;;;31.58;5.28;;;24.20;63.60;;;;;;4968113;28;20110;-75
2022/01/06 07:17:17;;;;;;;23.10;4.25;;;24.20;63.60;;;;;;4954571;28;20049;-79
2022/01/06 07:19:44;;;;;;;38.00;5.65;;;24.30;63.50;;;;;;4973226;28;20113;-74
2022/01/06 07:22:10;;;;;;;29.48;13.23;;;24.30;63.50;;;;;;4968472;28;20062;-74
2022/01/06 07:24:37;;;;;;;37.42;8.60;;;24.40;63.10;;;;;;4967781;28;20118;-78
2022/01/06 07:27:08;;;;;;;39.13;7.85;;;24.40;62.90;;;;;;4970829;28;20029;-81
2022/01/06 07:29:34;;;;;;;30.75;6.57;;;24.40;62.90;;;;;;4965993;28;20093;-80
2022/01/06 07:32:01;;;;;;;49.42;8.18;;;24.40;63.00;;;;;;4968185;28;20026;-73
2022/01/06 07:34:29;;;;;;;28.48;9.13;;;24.40;63.40;;;;;;4970605;28;20486;-78
2022/01/06 07:36:56;;;;;;;30.67;14.05;;;24.50;63.60;;;;;;4948426;28;20396;-77
2022/01/06 07:39:25;;;;;;;28.98;9.70;;;24.50;64.20;;;;;;4971702;28;20069;-78
2022/01/06 07:41:53;;;;;;;25.70;9.43;;;24.50;63.40;;;;;;4966218;28;20039;-75
2022/01/06 07:44:19;;;;;;;33.53;8.68;;;24.50;63.40;;;;;;4950088;28;20026;-75
2022/01/06 07:46:47;;;;;;;16.85;6.90;;;24.60;63.30;;;;;;4965541;28;21064;-75
2022/01/06 07:49:13;;;;;;;13.75;5.65;;;24.60;63.10;;;;;;4966687;28;20351;-74
2022/01/06 07:51:40;;;;;;;19.80;4.70;;;24.70;63.00;;;;;;4969318;28;20057;-73
2022/01/06 07:54:07;;;;;;;12.15;4.15;;;24.70;62.80;;;;;;4968363;28;20074;-78
2022/01/06 07:56:34;;;;;;;13.40;4.40;;;24.70;62.50;;;;;;4965752;28;20095;-78
2022/01/06 07:59:01;;;;;;;58.30;8.05;;;24.70;62.40;;;;;;4966026;28;20057;-78
2022/01/06 08:01:27;;;;;;;55.30;9.27;;;24.80;62.90;;;;;;4967883;28;20046;-76
2022/01/06 08:03:54;;;;;;;102.90;13.40;;;24.90;63.20;;;;;;4968389;28;20033;-75
2022/01/06 08:06:20;;;;;;;52.47;8.35;;;24.90;63.40;;;;;;4951427;28;20534;-75
2022/01/06 08:08:47;;;;;;;61.47;8.32;;;25.00;63.10;;;;;;4966175;28;20042;-74
2022/01/06 08:11:15;;;;;;;31.40;7.10;;;25.00;62.20;;;;;;4955745;28;20031;-75
2022/01/06 08:13:42;;;;;;;32.97;7.07;;;25.10;62.10;;;;;;4967474;28;20081;-76
2022/01/06 08:16:09;;;;;;;20.50;5.05;;;25.10;61.80;;;;;;4967340;28;20386;-76
2022/01/06 08:18:36;;;;;;;22.48;5.30;;;25.20;61.60;;;;;;4963472;28;20371;-77
2022/01/06 08:21:03;;;;;;;15.50;4.05;;;25.20;61.20;;;;;;4966790;28;20442;-76
2022/01/06 08:23:29;;;;;;;17.90;4.47;;;25.30;60.90;;;;;;4974401;28;20015;-76
2022/01/06 08:25:56;;;;;;;25.08;5.00;;;25.30;60.40;;;;;;4970604;28;20027;-77
2022/01/06 08:28:25;;;;;;;38.45;5.85;;;25.30;60.20;;;;;;4968986;28;20042;-76
2022/01/06 08:30:52;;;;;;;21.35;4.63;;;25.40;60.30;;;;;;4968502;28;20117;-80
2022/01/06 08:33:18;;;;;;;33.95;5.47;;;25.50;60.10;;;;;;4968248;28;20035;-77
2022/01/06 08:35:45;;;;;;;16.63;4.45;;;25.50;59.60;;;;;;4967391;28;20023;-78
2022/01/06 08:38:11;;;;;;;16.10;4.43;;;25.50;59.30;;;;;;4969584;28;20019;-76
2022/01/06 08:40:38;;;;;;;12.90;3.15;;;25.50;59.30;;;;;;4969682;28;20039;-76
2022/01/06 08:43:05;;;;;;;15.23;4.43;;;25.60;59.00;;;;;;4971942;28;20031;-73
2022/01/06 08:45:32;;;;;;;29.75;5.35;;;25.60;58.70;;;;;;4966540;28;20520;-73
2022/01/06 08:48:01;;;;;;;17.52;4.00;;;25.70;58.60;;;;;;4968881;28;20023;-74
2022/01/06 08:50:28;;;;;;;14.70;4.15;;;25.70;58.60;;;;;;4968481;28;20105;-74
2022/01/06 08:52:58;;;;;;;13.57;4.18;;;25.80;58.40;;;;;;4968373;28;20065;-74
2022/01/06 08:55:26;;;;;;;13.60;3.45;;;25.80;58.50;;;;;;4960573;28;20019;-75
2022/01/06 08:57:54;;;;;;;32.95;5.05;;;25.80;58.20;;;;;;4970371;28;20423;-74
2022/01/06 09:00:20;;;;;;;45.60;6.53;;;25.90;58.10;;;;;;4964755;28;20359;-75
2022/01/06 09:02:47;;;;;;;24.13;4.18;;;26.00;58.00;;;;;;4960767;28;20715;-74
2022/01/06 09:05:14;;;;;;;13.63;3.85;;;26.00;57.80;;;;;;4970071;28;20226;-74
2022/01/06 09:07:41;;;;;;;13.00;3.63;;;26.10;57.40;;;;;;4949196;28;20421;-75
2022/01/06 09:10:08;;;;;;;10.40;3.15;;;26.10;57.20;;;;;;4966785;28;20063;-75
2022/01/06 09:12:34;;;;;;;22.15;4.88;;;26.10;57.30;;;;;;4957284;28;20439;-75
2022/01/06 09:15:05;;;;;;;24.70;4.28;;;26.20;57.10;;;;;;4968017;28;20417;-77
2022/01/06 09:17:35;;;;;;;52.45;6.40;;;26.20;57.20;;;;;;4948781;28;20383;-73
2022/01/06 09:20:03;;;;;;;38.17;5.40;;;26.30;57.20;;;;;;4973639;28;20096;-74
2022/01/06 09:22:30;;;;;;;30.58;5.07;;;26.30;57.30;;;;;;4967038;28;20144;-77
2022/01/06 09:24:56;;;;;;;21.08;3.83;;;26.40;56.70;;;;;;4969930;28;20158;-75
2022/01/06 09:27:23;;;;;;;11.13;3.92;;;26.40;56.50;;;;;;4973893;28;20027;-78
2022/01/06 09:29:53;;;;;;;15.32;2.42;;;26.40;56.30;;;;;;4968783;28;20074;-74
2022/01/06 09:32:20;;;;;;;15.15;4.30;;;26.40;56.20;;;;;;4971404;28;20019;-77
2022/01/06 09:34:47;;;;;;;14.65;3.35;;;26.50;56.20;;;;;;4968757;28;20030;-74
2022/01/06 09:37:14;;;;;;;16.65;4.53;;;26.50;56.40;;;;;;4972810;28;20033;-78
2022/01/06 09:39:41;;;;;;;18.40;5.32;;;26.60;56.60;;;;;;4956065;28;20031;-75
2022/01/06 09:42:09;;;;;;;14.55;3.20;;;26.70;56.50;;;;;;4970147;28;20026;-76
2022/01/06 09:44:38;;;;;;;10.13;3.55;;;26.70;55.90;;;;;;4973337;28;20030;-75
2022/01/06 09:47:07;;;;;;;10.95;3.08;;;26.80;55.80;;;;;;4953930;28;20093;-74
2022/01/06 09:49:38;;;;;;;9.93;2.35;;;26.80;55.40;;;;;;4969336;28;20041;-74
2022/01/06 09:52:06;;;;;;;13.23;3.00;;;26.90;55.20;;;;;;4972277;28;20018;-74
2022/01/06 09:54:34;;;;;;;5.25;2.50;;;26.90;55.00;;;;;;4969165;28;20085;-75
2022/01/06 09:57:00;;;;;;;7.05;2.20;;;27.00;54.80;;;;;;4968245;28;20019;-75
2022/01/06 09:59:27;;;;;;;7.25;2.15;;;27.00;54.50;;;;;;4969488;28;20027;-76
2022/01/06 10:01:55;;;;;;;7.75;2.55;;;27.10;54.40;;;;;;4973201;28;20478;-75
2022/01/06 10:04:28;;;;;;;7.47;1.95;;;27.20;54.00;;;;;;4966659;28;20054;-75
2022/01/06 10:07:04;;;;;;;7.00;2.33;;;27.20;53.60;;;;;;4947837;28;20027;-74
2022/01/06 10:09:33;;;;;;;4.10;2.25;;;27.30;53.40;;;;;;4967737;28;20031;-75
2022/01/06 10:12:03;;;;;;;8.75;3.38;;;27.40;53.50;;;;;;4971625;28;20474;-77
2022/01/06 10:14:46;;;;;;;31.85;4.93;;;27.50;53.10;;;;;;4971543;28;20023;-74
2022/01/06 10:17:28;;;;;;;10.18;2.30;;;27.50;52.90;;;;;;4966554;28;20094;-75
2022/01/06 10:19:55;;;;;;;7.50;2.42;;;27.50;52.80;;;;;;4971038;28;20434;-74
2022/01/06 10:22:22;;;;;;;4.82;2.63;;;27.60;52.70;;;;;;4967268;28;20125;-75
2022/01/06 10:24:50;;;;;;;11.23;1.98;;;27.70;52.50;;;;;;4963253;28;20027;-76
2022/01/06 10:27:20;;;;;;;6.35;2.42;;;27.70;52.00;;;;;;4968661;28;20106;-74
2022/01/06 10:30:08;;;;;;;7.30;2.70;;;27.80;52.10;;;;;;4969741;28;20026;-76
2022/01/06 10:32:39;;;;;;;7.93;2.40;;;27.90;52.00;;;;;;4970397;28;20491;-75
2022/01/06 10:35:07;;;;;;;6.22;2.33;;;27.90;51.60;;;;;;4966110;28;20023;-77
2022/01/06 10:37:45;;;;;;;9.13;2.53;;;27.90;51.30;;;;;;4970594;28;20106;-75
2022/01/06 10:40:24;;;;;;;7.47;1.90;;;28.00;51.30;;;;;;4964601;28;20085;-75
2022/01/06 10:42:53;;;;;;;5.43;2.28;;;28.00;51.40;;;;;;4968596;28;20046;-73
2022/01/06 10:45:26;;;;;;;9.18;2.78;;;28.00;51.30;;;;;;4972529;28;20385;-74
2022/01/06 10:48:00;;;;;;;13.30;3.50;;;28.10;51.20;;;;;;4968983;28;20490;-74
2022/01/06 10:50:38;;;;;;;13.98;2.25;;;28.10;51.20;;;;;;4960867;28;20030;-75
2022/01/06 10:53:10;;;;;;;7.72;1.75;;;28.20;50.90;;;;;;4966258;28;20394;-78
2022/01/06 10:55:39;;;;;;;7.10;2.13;;;28.20;50.70;;;;;;4971903;28;20486;-75
2022/01/06 10:58:11;;;;;;;4.78;2.35;;;28.30;50.60;;;;;;4965883;28;20022;-74
2022/01/06 11:00:48;;;;;;;6.30;2.13;;;28.30;50.50;;;;;;4965816;28;20162;-76
2022/01/06 11:03:17;;;;;;;7.15;1.80;;;28.30;50.50;;;;;;4962524;28;20023;-74
2022/01/06 11:05:52;;;;;;;8.63;2.95;;;28.40;50.50;;;;;;4953588;28;20031;-77
2022/01/06 11:08:21;;;;;;;8.90;2.40;;;28.50;50.40;;;;;;4963239;28;20085;-75
2022/01/06 11:11:13;;;;;;;9.93;2.08;;;28.50;50.30;;;;;;4971678;28;20027;-74
2022/01/06 11:13:41;;;;;;;6.65;2.05;;;28.60;50.20;;;;;;4966290;28;20089;-78
2022/01/06 11:16:12;;;;;;;4.25;2.33;;;28.60;50.00;;;;;;4970296;28;20401;-76
2022/01/06 11:18:41;;;;;;;6.60;2.38;;;28.70;50.20;;;;;;4968643;28;20023;-76
2022/01/06 11:21:14;;;;;;;6.93;2.63;;;28.70;50.10;;;;;;4968322;28;20035;-75
2022/01/06 11:23:40;;;;;;;6.65;2.35;;;28.80;50.80;;;;;;4967626;28;20019;-76
2022/01/06 11:26:13;;;;;;;6.03;1.92;;;28.80;50.20;;;;;;4964238;28;20026;-76
2022/01/06 11:28:42;;;;;;;34.50;4.78;;;29.00;50.30;;;;;;4966310;28;20058;-75
2022/01/06 11:31:25;;;;;;;15.35;4.43;;;29.00;50.30;;;;;;4967692;28;20028;-76
2022/01/06 11:33:55;;;;;;;14.25;3.40;;;29.10;50.40;;;;;;4948629;28;20038;-76
2022/01/06 11:36:32;;;;;;;12.20;1.90;;;29.20;50.70;;;;;;4970309;28;20049;-74
2022/01/06 11:39:05;;;;;;;21.77;2.83;;;29.20;50.70;;;;;;4965388;28;20026;-75
2022/01/06 11:41:36;;;;;;;7.03;2.70;;;29.30;50.80;;;;;;4967290;28;20073;-76
2022/01/06 11:44:17;;;;;;;5.47;2.10;;;29.40;50.90;;;;;;4965693;28;20029;-75
2022/01/06 11:46:46;;;;;;;6.78;2.50;;;29.50;51.00;;;;;;4954264;28;20065;-75
2022/01/06 11:49:13;;;;;;;8.82;2.33;;;29.50;51.00;;;;;;4961545;28;20129;-75
2022/01/06 11:51:40;;;;;;;11.07;2.67;;;29.60;51.10;;;;;;4952747;28;20023;-77
2022/01/06 11:54:19;;;;;;;9.35;2.72;;;29.60;51.00;;;;;;4967572;28;20490;-74
2022/01/06 11:56:50;;;;;;;11.52;2.75;;;29.70;50.90;;;;;;4969353;28;20385;-76
2022/01/06 11:59:29;;;;;;;6.97;2.47;;;29.70;50.80;;;;;;4965606;28;20114;-75
2022/01/06 12:01:56;;;;;;;22.05;3.75;;;29.70;51.00;;;;;;4952813;28;20057;-75
2022/01/06 12:04:24;;;;;;;21.33;3.70;;;29.80;50.90;;;;;;4969354;28;20030;-75
2022/01/06 12:07:02;;;;;;;21.08;3.55;;;29.80;50.80;;;;;;4966887;28;20030;-74
2022/01/06 12:09:28;;;;;;;24.48;3.72;;;29.80;50.60;;;;;;4967368;28;20054;-75
2022/01/06 12:12:09;;;;;;;18.60;4.28;;;29.80;50.60;;;;;;4965082;28;20055;-75
2022/01/06 12:14:36;;;;;;;7.25;2.47;;;29.70;50.60;;;;;;4952086;28;20117;-74
2022/01/06 12:17:08;;;;;;;34.05;5.00;;;29.70;50.70;;;;;;4965745;28;20034;-76
2022/01/06 12:19:35;;;;;;;20.17;3.83;;;29.70;50.90;;;;;;4970490;28;20029;-73
2022/01/06 12:22:04;;;;;;;15.85;3.47;;;29.70;51.80;;;;;;4968642;28;20050;-76
2022/01/06 12:24:41;;;;;;;19.08;3.97;;;29.80;51.40;;;;;;4952415;28;20030;-73
2022/01/06 12:27:07;;;;;;;13.30;3.45;;;29.80;51.40;;;;;;4951786;28;20154;-74
2022/01/06 12:29:39;;;;;;;17.80;3.67;;;29.90;51.30;;;;;;4965453;28;20031;-75
2022/01/06 12:32:11;;;;;;;10.80;2.88;;;29.80;51.00;;;;;;4967358;28;20023;-73
2022/01/06 12:34:39;;;;;;;11.52;3.65;;;29.90;50.90;;;;;;4969097;28;20138;-77
2022/01/06 12:37:05;;;;;;;14.88;3.33;;;29.80;51.00;;;;;;4952704;28;20051;-78
2022/01/06 12:39:34;;;;;;;8.90;2.78;;;29.80;51.00;;;;;;4963406;28;20045;-76
2022/01/06 12:42:05;;;;;;;9.38;2.33;;;29.80;51.10;;;;;;4968652;28;20097;-76
2022/01/06 12:44:32;;;;;;;8.40;3.15;;;29.80;51.10;;;;;;4951610;28;20524;-76
2022/01/06 12:46:59;;;;;;;6.05;2.28;;;29.80;50.90;;;;;;4970732;28;20026;-74
2022/01/06 12:49:28;;;;;;;9.68;3.65;;;29.80;50.90;;;;;;4961438;28;20081;-74